Time;durP1;ratioP1;P1;durP2;ratioP2;P2;SDS_P1;SDS_P2;PMS_P1;PMS_P2;Temp;Humidity;BMP_temperature;BMP_pressure;BME280_temperature;BME280_humidity;BME280_pressure;Samples;Min_cycle;Max_cycle;Signal;HPM_P1;HPM_P2
2021/12/14 00:02:25;;;;;;;18.27;8.00;;;;;;;2.46;87.37;99760.61;1795724;78;21551;-80
2021/12/14 00:04:50;;;;;;;18.67;8.05;;;;;;;2.45;87.67;99755.44;1796845;79;21009;-80
2021/12/14 00:07:19;;;;;;;17.30;7.12;;;;;;;2.45;87.75;99758.01;1797123;78;20981;-80
2021/12/14 00:09:46;;;;;;;21.30;8.65;;;;;;;2.47;87.79;99753.80;1789724;78;21003;-81
2021/12/14 00:15:04;;;;;;;22.35;8.45;;;;;;;2.45;88.05;99759.29;1805827;79;21483;-79
2021/12/14 00:17:42;;;;;;;20.00;8.18;;;;;;;2.49;88.04;99764.95;1785148;78;20949;-80
2021/12/14 00:20:33;;;;;;;21.45;8.30;;;;;;;2.51;88.10;99760.29;1764483;79;21562;-81
2021/12/14 00:25:40;;;;;;;19.23;9.00;;;;;;;2.55;87.92;99758.22;1796307;79;21001;-78
2021/12/14 00:28:14;;;;;;;19.52;8.75;;;;;;;2.57;87.82;99764.25;1793545;79;21048;-82
2021/12/14 00:30:44;;;;;;;18.50;8.48;;;;;;;2.58;87.73;99760.83;1796502;79;21004;-80
2021/12/14 00:33:17;;;;;;;22.10;8.08;;;;;;;2.61;87.61;99757.86;1791231;78;20997;-80
2021/12/14 00:35:46;;;;;;;18.55;8.40;;;;;;;2.58;87.60;99760.83;1799509;79;20941;-80
2021/12/14 00:38:15;;;;;;;19.20;8.30;;;;;;;2.58;87.30;99764.67;1799644;78;20989;-81
2021/12/14 00:40:47;;;;;;;22.52;8.13;;;;;;;2.57;87.19;99765.95;1799872;79;22233;-82
2021/12/14 00:43:14;;;;;;;21.85;8.10;;;;;;;2.54;87.28;99768.03;1778806;79;20970;-82
2021/12/14 00:45:43;;;;;;;18.60;8.08;;;;;;;2.50;87.35;99773.94;1788883;79;21004;-81
2021/12/14 00:48:11;;;;;;;19.40;8.60;;;;;;;2.47;87.45;99770.48;1788933;79;20970;-81
2021/12/14 00:50:44;;;;;;;18.15;7.08;;;;;;;2.46;87.50;99772.16;1791384;79;21016;-79
2021/12/14 00:53:12;;;;;;;18.27;8.18;;;;;;;2.48;87.54;99775.62;1795913;79;21013;-81
2021/12/14 00:55:43;;;;;;;17.07;7.40;;;;;;;2.48;87.56;99773.05;1761894;81;21026;-81
2021/12/14 00:58:14;;;;;;;16.87;7.37;;;;;;;2.47;87.64;99774.33;1772148;79;20983;-81
2021/12/14 01:00:46;;;;;;;18.87;7.80;;;;;;;2.46;87.77;99772.16;1765292;80;21020;-81
2021/12/14 01:03:13;;;;;;;16.67;7.70;;;;;;;2.47;87.77;99779.47;1750682;81;21555;-80
2021/12/14 01:05:44;;;;;;;16.42;7.15;;;;;;;2.48;87.92;99774.77;1770887;81;21056;-81
2021/12/14 01:08:16;;;;;;;18.65;7.80;;;;;;;2.48;87.90;99780.75;1757156;80;21017;-79
2021/12/14 01:10:50;;;;;;;;;;;;;;;2.52;87.93;99776.12;1791558;79;20961;-80
2021/12/14 01:13:20;;;;;;;19.60;7.75;;;;;;;2.51;87.85;99774.83;1789400;79;20198;-81
2021/12/14 01:21:39;;;;;;;20.37;7.95;;;;;;;2.49;87.36;99778.65;1741543;81;21505;-81
2021/12/14 01:24:03;;;;;;;17.82;7.20;;;;;;;2.45;87.47;99779.83;1787279;79;21611;-81
2021/12/14 01:26:25;;;;;;;16.93;7.78;;;;;;;2.41;87.64;99778.04;1780262;80;21045;-80
2021/12/14 01:28:51;;;;;;;17.10;6.10;;;;;;;2.42;86.82;99774.22;1741195;81;21037;-79
2021/12/14 01:31:33;;;;;;;18.85;7.37;;;;;;;2.37;87.23;99775.44;1759090;79;21004;-80
2021/12/14 01:34:02;;;;;;;21.95;7.62;;;;;;;2.35;87.24;99777.53;1775049;79;21596;-81
2021/12/14 01:41:55;;;;;;;16.00;6.50;;;;;;;2.36;87.76;99780.53;1778940;80;21021;-80
2021/12/14 01:44:25;;;;;;;14.20;6.45;;;;;;;2.37;87.89;99776.72;1780020;80;21020;-81
2021/12/14 01:47:01;;;;;;;15.95;7.92;;;;;;;2.39;87.95;99769.91;1730757;81;21518;-80
2021/12/14 01:49:38;;;;;;;15.88;6.72;;;;;;;2.41;87.92;99776.75;1762410;80;21080;-80
2021/12/14 01:52:20;;;;;;;13.45;6.22;;;;;;;2.45;88.02;99782.00;1724313;82;21441;-80
2021/12/14 01:54:52;;;;;;;17.52;7.37;;;;;;;2.46;88.01;99781.57;1751762;80;21047;-79
2021/12/14 01:57:23;;;;;;;15.58;6.55;;;;;;;2.49;88.02;99778.65;1756017;81;20988;-80
2021/12/14 01:59:55;;;;;;;16.85;7.30;;;;;;;2.50;87.93;99779.50;1757125;81;21023;-79
2021/12/14 02:02:31;;;;;;;16.15;7.05;;;;;;;2.51;87.95;99782.11;1755853;82;21027;-80
2021/12/14 02:05:03;;;;;;;21.45;7.78;;;;;;;2.54;87.87;99782.57;1759990;79;21115;-81
2021/12/14 02:07:32;;;;;;;16.93;7.20;;;;;;;2.55;87.77;99785.60;1796444;78;21528;-82
2021/12/14 02:10:08;;;;;;;17.55;6.83;;;;;;;2.55;87.58;99780.04;1790956;78;20963;-80
2021/12/14 02:12:40;;;;;;;14.50;6.95;;;;;;;2.53;87.74;99782.14;1788170;78;21066;-83
2021/12/14 02:15:22;;;;;;;17.52;7.70;;;;;;;2.49;87.53;99786.34;1792611;78;20996;-81
2021/12/14 02:17:52;;;;;;;18.65;7.08;;;;;;;2.47;87.25;99788.45;1793241;78;21489;-79
2021/12/14 02:20:24;;;;;;;19.70;7.25;;;;;;;2.42;87.77;99788.34;1798018;78;21051;-81
2021/12/14 02:22:51;;;;;;;15.83;6.80;;;;;;;2.39;87.46;99788.30;1791631;78;21469;-79
2021/12/14 02:25:20;;;;;;;16.00;7.37;;;;;;;2.36;87.80;99792.08;1793694;78;21120;-82
2021/12/14 02:27:50;;;;;;;13.45;6.50;;;;;;;2.35;87.83;99798.06;1795602;78;20969;-81
2021/12/14 02:30:24;;;;;;;13.93;6.58;;;;;;;2.38;87.66;99796.81;1795845;78;21044;-80
2021/12/14 02:32:51;;;;;;;16.37;6.70;;;;;;;2.36;88.17;99795.92;1795547;79;21056;-78
2021/12/14 02:35:23;;;;;;;18.42;7.42;;;;;;;2.37;88.12;99796.39;1784330;78;21012;-80
2021/12/14 02:38:02;;;;;;;14.87;6.45;;;;;;;2.38;88.29;99791.69;1785357;78;20965;-82
2021/12/14 02:40:53;;;;;;;15.00;6.17;;;;;;;2.39;88.42;99798.56;1795698;80;21059;-81
2021/12/14 02:43:29;;;;;;;17.40;7.30;;;;;;;2.41;88.51;99798.57;1795616;78;21496;-80
2021/12/14 02:46:12;;;;;;;14.90;6.28;;;;;;;2.45;88.46;99791.38;1795963;78;20973;-80
2021/12/14 02:48:43;;;;;;;17.15;6.97;;;;;;;2.44;88.46;99792.23;1812382;78;21001;-81
2021/12/14 02:51:21;;;;;;;17.02;6.42;;;;;;;2.45;88.56;99791.38;1795932;78;20985;-80
2021/12/14 02:53:53;;;;;;;15.50;6.97;;;;;;;2.45;88.46;99793.94;1771334;78;20984;-81
2021/12/14 02:56:25;;;;;;;18.10;7.72;;;;;;;2.46;88.65;99791.83;1795273;78;21005;-80
2021/12/14 02:59:00;;;;;;;15.13;7.10;;;;;;;2.47;88.66;99794.44;1798546;78;21040;-81
2021/12/14 03:01:27;;;;;;;19.42;7.30;;;;;;;2.48;88.43;99794.02;1787569;78;21504;-83
2021/12/14 03:04:01;;;;;;;17.50;7.03;;;;;;;2.46;88.02;99793.97;1797874;78;20985;-82
2021/12/14 03:06:33;;;;;;;17.85;7.85;;;;;;;2.41;88.22;99798.17;1792198;78;20965;-84
2021/12/14 03:09:31;;;;;;;16.45;6.80;;;;;;;2.38;88.94;99799.39;1772284;78;21025;-81
2021/12/14 03:11:38;;;;;;;17.75;7.35;;;;;;;2.35;88.42;99792.93;1772271;78;21024;-81
2021/12/14 03:14:05;;;;;;;15.60;6.97;;;;;;;2.31;88.48;99794.99;1775666;80;21023;-81
2021/12/14 03:16:36;;;;;;;18.62;7.17;;;;;;;2.30;88.43;99799.66;1795864;78;21049;-79
2021/12/14 03:19:06;;;;;;;17.57;6.97;;;;;;;2.30;88.38;99797.95;1795930;78;21055;-79
2021/12/14 03:21:39;;;;;;;19.55;8.30;;;;;;;2.28;88.91;99797.05;1784072;78;21013;-80
2021/12/14 03:24:10;;;;;;;20.05;8.68;;;;;;;2.25;89.16;99798.69;1793836;78;21008;-80
2021/12/14 03:26:41;;;;;;;28.30;8.85;;;;;;;2.25;89.33;99794.84;1749476;81;21015;-79
2021/12/14 03:29:13;;;;;;;19.40;7.47;;;;;;;2.27;89.03;99794.06;1787738;79;21012;-80
2021/12/14 03:31:44;;;;;;;17.60;7.20;;;;;;;2.29;88.83;99793.67;1770403;79;20977;-81
2021/12/14 03:34:24;;;;;;;19.27;7.20;;;;;;;2.29;88.78;99796.23;1762973;79;21104;-82
2021/12/14 03:36:56;;;;;;;14.70;6.83;;;;;;;2.26;88.97;99793.59;1781820;80;21025;-79
2021/12/14 03:39:30;;;;;;;17.70;7.80;;;;;;;2.30;89.06;99803.08;1783105;78;21489;-81
2021/12/14 03:42:18;;;;;;;16.82;7.55;;;;;;;2.28;89.17;99800.05;1781677;80;21528;-80
2021/12/14 03:44:51;;;;;;;15.13;6.95;;;;;;;2.28;89.13;99798.77;1781635;79;21673;-80
2021/12/14 03:47:27;;;;;;;17.12;6.92;;;;;;;2.27;89.05;99797.02;1781788;79;20989;-79
2021/12/14 03:50:01;;;;;;;23.22;7.90;;;;;;;2.25;89.35;99801.25;1790404;78;21013;-78
2021/12/14 03:52:33;;;;;;;16.93;7.80;;;;;;;2.26;89.43;99804.28;1795823;78;20996;-83
2021/12/14 03:55:05;;;;;;;15.65;7.55;;;;;;;2.24;89.15;99802.11;1797782;78;21001;-81
2021/12/14 03:57:32;;;;;;;19.65;8.65;;;;;;;2.24;89.01;99807.23;1801643;78;21067;-80
2021/12/14 04:00:00;;;;;;;15.60;7.20;;;;;;;2.24;88.95;99804.67;1802538;78;21072;-79
2021/12/14 04:02:27;;;;;;;14.38;7.33;;;;;;;2.23;89.07;99814.47;1802607;78;21036;-81
2021/12/14 04:05:05;;;;;;;13.35;6.97;;;;;;;2.19;88.45;99813.57;1804022;78;21244;-82
2021/12/14 04:07:34;;;;;;;15.80;6.83;;;;;;;2.18;88.35;99814.39;1798606;78;20977;-79
2021/12/14 04:10:08;;;;;;;15.93;7.05;;;;;;;2.14;88.74;99817.73;1784800;78;21051;-82
2021/12/14 04:12:36;;;;;;;16.77;6.80;;;;;;;2.14;88.35;99821.58;1787100;79;20977;-80
2021/12/14 04:15:04;;;;;;;14.45;6.95;;;;;;;2.10;88.87;99818.08;1790362;78;20965;-80
2021/12/14 04:17:32;;;;;;;14.13;6.17;;;;;;;2.09;88.86;99820.20;1790385;79;21518;-82
2021/12/14 04:19:59;;;;;;;13.65;7.20;;;;;;;2.06;88.79;99823.98;1777440;79;21131;-81
2021/12/14 04:22:30;;;;;;;13.35;6.20;;;;;;;2.06;88.75;99815.00;1785542;79;21081;-80
2021/12/14 04:25:02;;;;;;;17.55;6.83;;;;;;;2.06;89.00;99814.14;1787030;79;20988;-78
2021/12/14 04:27:32;;;;;;;14.53;6.83;;;;;;;2.03;89.02;99816.63;1787126;79;21009;-78
2021/12/14 04:30:03;;;;;;;12.70;6.55;;;;;;;2.05;89.07;99828.67;1787351;78;21417;-81
2021/12/14 04:32:32;;;;;;;13.50;7.17;;;;;;;2.08;88.93;99821.45;1790537;78;21061;-80
2021/12/14 04:34:59;;;;;;;12.80;6.58;;;;;;;2.05;89.05;99821.38;1784620;78;20942;-82
2021/12/14 04:37:26;;;;;;;14.25;6.95;;;;;;;2.05;89.04;99821.38;1782264;79;21016;-81
2021/12/14 04:40:15;;;;;;;16.17;6.97;;;;;;;2.03;88.97;99830.34;1790135;78;20964;-82
2021/12/14 04:53:53;;;;;;;13.45;6.70;;;;;;;2.05;88.94;99844.06;1788389;79;21032;-80
2021/12/14 04:56:29;;;;;;;14.50;7.20;;;;;;;2.06;88.94;99847.48;1790555;78;21081;-81
2021/12/14 04:59:02;;;;;;;15.83;7.20;;;;;;;2.05;88.84;99849.20;1795481;78;21017;-78
2021/12/14 05:01:37;;;;;;;13.87;7.00;;;;;;;2.04;88.85;99848.73;1793442;78;21013;-83
2021/12/14 05:04:09;;;;;;;13.35;6.92;;;;;;;2.04;88.87;99851.72;1795336;78;21067;-81
2021/12/14 05:06:52;;;;;;;13.65;6.75;;;;;;;2.03;88.75;99851.25;1795466;78;21109;-80
2021/12/14 05:09:30;;;;;;;12.23;5.50;;;;;;;1.88;88.96;99848.81;1784491;78;21006;-80
2021/12/14 05:12:16;;;;;;;13.10;6.53;;;;;;;1.88;88.96;99848.81;1789050;78;21528;-79
2021/12/14 05:14:46;;;;;;;16.70;6.80;;;;;;;1.89;89.17;99858.65;1787664;79;21132;-79
2021/12/14 05:17:24;;;;;;;13.15;6.12;;;;;;;1.91;89.13;99852.74;1795942;78;21040;-79
2021/12/14 05:19:53;;;;;;;14.35;6.42;;;;;;;1.94;88.95;99859.20;1754293;80;21037;-79
2021/12/14 05:22:26;;;;;;;12.55;6.30;;;;;;;2.00;88.84;99862.33;1797955;78;21065;-80
2021/12/14 05:25:03;;;;;;;16.82;7.25;;;;;;;1.99;88.92;99861.47;1796157;78;21472;-79
2021/12/14 05:27:40;;;;;;;12.80;6.55;;;;;;;1.98;88.95;99874.25;1795827;78;21032;-80
2021/12/14 05:30:18;;;;;;;16.32;6.65;;;;;;;2.01;88.95;99874.33;1796081;79;21043;-78
2021/12/14 05:32:53;;;;;;;16.30;6.65;;;;;;;2.03;89.05;99875.62;1793924;78;21041;-80
2021/12/14 05:35:20;;;;;;;17.77;7.75;;;;;;;2.05;89.04;99872.67;1797611;78;20987;-82
2021/12/14 05:37:53;;;;;;;17.75;7.33;;;;;;;2.06;89.05;99865.02;1803148;78;20973;-81
2021/12/14 05:41:10;;;;;;;20.40;9.75;;;;;;;2.12;89.14;99877.97;1777405;78;21560;-83
2021/12/14 05:43:06;;;;;;;19.73;8.13;;;;;;;2.13;89.05;99868.17;1772520;78;21149;-80
2021/12/14 05:45:46;;;;;;;14.90;7.70;;;;;;;2.17;89.02;99873.82;1761219;78;21047;-79
2021/12/14 05:48:22;;;;;;;24.07;10.88;;;;;;;2.17;88.79;99877.66;1753419;80;21054;-80
2021/12/14 05:50:55;;;;;;;31.77;14.43;;;;;;;2.18;88.91;99870.83;1738140;80;21080;-82
2021/12/14 05:53:28;;;;;;;22.37;10.60;;;;;;;2.19;88.94;99882.84;1751293;81;21061;-81
2021/12/14 05:55:56;;;;;;;44.42;20.72;;;;;;;2.18;88.89;99881.95;1781114;78;21059;-81
2021/12/14 05:58:25;;;;;;;21.95;11.48;;;;;;;2.16;88.97;99877.63;1800462;78;21039;-81
2021/12/14 06:01:07;;;;;;;18.50;9.00;;;;;;;2.16;88.62;99884.90;1786335;78;21047;-82
2021/12/14 06:03:54;;;;;;;20.62;7.75;;;;;;;2.15;88.48;99893.45;1796625;78;21015;-79
2021/12/14 06:06:30;;;;;;;13.43;7.15;;;;;;;2.14;88.65;99884.00;1767495;80;21041;-79
2021/12/14 06:09:18;;;;;;;13.13;6.67;;;;;;;2.10;88.69;99891.19;1800808;80;21146;-79
2021/12/14 06:12:19;;;;;;;12.80;6.72;;;;;;;2.07;88.87;99894.98;1766126;80;21023;-78
2021/12/14 06:14:52;;;;;;;15.70;7.22;;;;;;;2.06;88.85;99901.35;1802259;78;21028;-80
2021/12/14 06:17:29;;;;;;;13.95;7.28;;;;;;;2.06;88.90;99895.80;1793648;78;21157;-81
2021/12/14 06:20:05;;;;;;;14.83;6.83;;;;;;;2.07;88.91;99900.50;1788700;78;20985;-80
2021/12/14 06:22:33;;;;;;;19.17;6.85;;;;;;;2.04;89.14;99898.75;1769445;79;21004;-80
2021/12/14 06:25:12;;;;;;;13.85;6.80;;;;;;;2.09;89.03;99899.73;1758204;81;21237;-80
2021/12/14 06:27:39;;;;;;;15.27;7.43;;;;;;;2.11;89.07;99898.06;1761116;80;21026;-80
2021/12/14 06:30:11;;;;;;;14.38;7.42;;;;;;;2.13;89.20;99899.35;1763209;81;20968;-81
2021/12/14 06:32:45;;;;;;;17.62;8.43;;;;;;;2.18;89.10;99902.47;1761441;80;21067;-81
2021/12/14 06:35:20;;;;;;;13.00;6.60;;;;;;;2.16;89.04;99904.14;1760850;80;21015;-83
2021/12/14 06:38:28;;;;;;;13.32;6.70;;;;;;;2.18;89.14;99902.89;1758048;80;21011;-81
2021/12/14 06:41:12;;;;;;;15.32;6.83;;;;;;;2.17;88.92;99903.33;1766446;80;21026;-81
2021/12/14 06:43:56;;;;;;;17.50;7.50;;;;;;;2.12;88.88;99910.04;1734341;81;20992;-82
2021/12/14 06:46:34;;;;;;;23.67;9.25;;;;;;;2.08;88.85;99912.52;1762517;81;21027;-83
2021/12/14 06:49:14;;;;;;;21.35;8.43;;;;;;;2.08;88.88;99919.78;1762870;81;20983;-82
2021/12/14 06:51:51;;;;;;;20.20;8.18;;;;;;;2.09;88.79;99922.81;1759139;81;21043;-80
2021/12/14 06:54:24;;;;;;;22.65;8.23;;;;;;;2.13;89.30;99922.05;1753537;80;21015;-79
2021/12/14 06:57:03;;;;;;;18.52;7.85;;;;;;;2.15;88.91;99928.08;1753280;80;20996;-78
2021/12/14 06:59:31;;;;;;;17.05;7.65;;;;;;;2.16;88.80;99933.64;1750495;80;20952;-80
2021/12/14 07:02:06;;;;;;;19.50;7.47;;;;;;;2.19;88.98;99932.87;1749147;80;21000;-81
2021/12/14 07:04:37;;;;;;;18.62;7.12;;;;;;;2.23;88.99;99940.19;1737099;82;21097;-81
2021/12/14 07:07:08;;;;;;;21.48;6.72;;;;;;;2.22;88.79;99934.20;1719160;82;21031;-80
2021/12/14 07:09:43;;;;;;;20.30;6.22;;;;;;;2.24;88.85;99930.39;1750862;81;21008;-80
2021/12/14 07:12:21;;;;;;;15.32;6.08;;;;;;;2.24;88.97;99935.52;1751690;80;21062;-80
2021/12/14 07:14:57;;;;;;;19.42;8.80;;;;;;;2.26;88.88;99937.70;1736422;80;21076;-82
2021/12/14 07:17:30;;;;;;;20.15;8.35;;;;;;;2.27;88.86;99936.85;1736778;80;21083;-81
2021/12/14 07:20:07;;;;;;;18.57;7.70;;;;;;;2.31;89.06;99932.27;1736192;80;21061;-80
2021/12/14 07:22:44;;;;;;;17.60;7.47;;;;;;;2.35;88.63;99932.78;1735252;80;21037;-81
2021/12/14 07:25:25;;;;;;;15.63;7.25;;;;;;;2.34;88.57;99937.45;1746808;81;20978;-83
2021/12/14 07:27:59;;;;;;;19.98;8.03;;;;;;;2.31;88.31;99943.39;1733438;82;20975;-84
2021/12/14 07:30:39;;;;;;;16.73;7.78;;;;;;;2.28;88.45;99941.17;1743571;80;21210;-83
2021/12/14 07:33:31;;;;;;;15.32;7.05;;;;;;;2.26;88.55;99945.41;1734695;80;21132;-89
2021/12/14 07:36:11;;;;;;;14.45;7.17;;;;;;;2.23;88.49;99951.34;1766786;80;21027;-85
2021/12/14 07:38:46;;;;;;;18.52;8.33;;;;;;;2.24;88.09;99955.63;1790509;77;21080;-84
2021/12/14 07:41:25;;;;;;;24.90;8.38;;;;;;;2.23;88.39;99942.75;1789621;80;21023;-83
2021/12/14 07:44:20;;;;;;;18.30;8.13;;;;;;;2.28;88.54;99951.43;1765463;81;20992;-83
2021/12/14 07:47:03;;;;;;;19.57;7.85;;;;;;;2.29;88.77;99951.87;1771060;79;21023;-83
2021/12/14 07:49:43;;;;;;;18.15;6.97;;;;;;;2.34;88.66;99952.42;1774221;79;21003;-81
2021/12/14 07:52:17;;;;;;;16.77;6.95;;;;;;;2.32;88.54;99960.93;1766095;79;21088;-83
2021/12/14 07:54:48;;;;;;;17.45;7.70;;;;;;;2.37;88.67;99960.63;1762949;80;20972;-84
2021/12/14 07:57:25;;;;;;;14.35;7.28;;;;;;;2.41;88.74;99961.53;1771486;80;21059;-89
2021/12/14 07:59:58;;;;;;;20.17;7.80;;;;;;;2.45;88.56;99964.61;1728659;82;21052;-83
2021/12/14 08:02:35;;;;;;;15.03;7.50;;;;;;;2.49;88.49;99970.30;1746849;81;21027;-83
2021/12/14 08:05:07;;;;;;;19.05;8.60;;;;;;;2.54;88.40;99964.40;1744460;80;21015;-83
2021/12/14 08:07:50;;;;;;;20.27;9.00;;;;;;;2.61;88.52;99970.95;1746152;80;21034;-84
2021/12/14 08:10:25;;;;;;;16.97;8.30;;;;;;;2.68;88.36;99974.96;1708914;82;21083;-84
2021/12/14 08:13:15;;;;;;;19.52;8.03;;;;;;;2.69;87.93;99970.72;1723574;82;20982;-83
2021/12/14 08:15:51;;;;;;;18.85;7.30;;;;;;;2.71;87.87;99978.03;1720239;82;20992;-84
2021/12/14 08:18:23;;;;;;;21.05;7.33;;;;;;;2.77;87.75;99973.88;1717354;82;21091;-85
2021/12/14 08:21:03;;;;;;;25.02;9.55;;;;;;;2.77;87.82;99982.01;1789629;80;20987;-85
2021/12/14 08:23:36;;;;;;;22.17;10.53;;;;;;;2.79;87.74;99977.77;1771874;79;22395;-86
2021/12/14 08:26:13;;;;;;;21.63;9.53;;;;;;;2.79;87.41;99981.19;1760393;80;21046;-85
2021/12/14 08:29:00;;;;;;;18.10;7.58;;;;;;;2.78;87.33;99976.02;1776017;79;21398;-89
2021/12/14 08:31:34;;;;;;;12.40;6.03;;;;;;;2.74;87.14;99974.23;1719630;82;21080;-85
2021/12/14 08:34:08;;;;;;;12.45;5.30;;;;;;;2.71;86.92;99976.75;1721768;83;21081;-82
2021/12/14 08:36:40;;;;;;;11.38;5.58;;;;;;;2.67;87.03;99980.95;1735052;80;21035;-85
2021/12/14 08:39:14;;;;;;;14.75;6.72;;;;;;;2.71;87.07;99984.45;1727497;81;21031;-84
2021/12/14 08:41:49;;;;;;;40.85;14.87;;;;;;;2.72;87.16;99979.75;1733041;79;20959;-83
2021/12/14 08:44:20;;;;;;;29.15;12.68;;;;;;;2.72;87.13;99985.73;1729440;82;21558;-83
2021/12/14 08:46:43;;;;;;;13.40;7.00;;;;;;;2.74;87.36;99989.20;1725109;81;21049;-82
2021/12/14 08:49:18;;;;;;;11.57;6.10;;;;;;;2.74;86.97;99985.35;1725487;81;21126;-82
2021/12/14 08:51:48;;;;;;;15.53;5.30;;;;;;;2.78;87.18;99982.02;1714937;81;21086;-83
2021/12/14 08:54:25;;;;;;;28.57;15.75;;;;;;;2.82;87.02;99981.66;1728696;80;21006;-86
2021/12/14 08:56:59;;;;;;;14.58;6.92;;;;;;;2.87;87.52;99983.06;1737510;82;21011;-84
2021/12/14 08:59:29;;;;;;;16.85;6.87;;;;;;;2.89;87.59;99981.39;1731515;80;21282;-82
2021/12/14 09:01:57;;;;;;;14.30;6.72;;;;;;;2.91;86.86;99979.72;1732464;80;20985;-91
2021/12/14 09:04:35;;;;;;;17.80;7.00;;;;;;;2.91;86.96;99972.88;1745874;81;21099;-81
2021/12/14 09:07:13;;;;;;;16.70;6.28;;;;;;;2.86;86.65;99969.33;1737127;81;20995;-83
2021/12/14 09:09:42;;;;;;;15.32;7.83;;;;;;;2.87;86.68;99974.07;1737617;80;20983;-87
2021/12/14 09:12:13;;;;;;;14.10;6.87;;;;;;;2.89;86.72;99968.55;1742964;79;20985;-85
2021/12/14 09:14:42;;;;;;;15.25;6.10;;;;;;;2.88;86.85;99966.38;1734302;81;20996;-87
2021/12/14 09:17:12;;;;;;;22.62;6.85;;;;;;;2.93;86.91;99960.92;1715208;80;21053;-88
2021/12/14 09:19:43;;;;;;;18.30;6.47;;;;;;;2.96;86.93;99966.13;1684195;85;21033;-85
2021/12/14 09:22:30;;;;;;;23.98;7.80;;;;;;;3.00;86.75;99961.90;1673187;81;21101;-83
2021/12/14 09:24:58;;;;;;;19.20;8.13;;;;;;;3.01;86.52;99962.79;1701872;81;21049;-81
2021/12/14 09:27:30;;;;;;;15.48;6.47;;;;;;;3.07;86.56;99957.77;1709914;83;21004;-82
2021/12/14 09:29:58;;;;;;;15.13;7.25;;;;;;;3.10;86.48;99960.38;1703306;80;21055;-81
2021/12/14 09:32:28;;;;;;;15.43;5.97;;;;;;;3.12;86.19;99963.44;1670962;82;20988;-82
2021/12/14 09:34:58;;;;;;;15.28;6.45;;;;;;;3.16;86.15;99952.78;1644634;85;21023;-83
2021/12/14 09:37:31;;;;;;;13.55;5.70;;;;;;;3.16;85.95;99957.52;1649182;83;21057;-85
2021/12/14 09:40:05;;;;;;;17.12;5.80;;;;;;;3.24;86.66;99957.64;1657310;84;21013;-85
2021/12/14 09:42:34;;;;;;;12.10;5.92;;;;;;;3.30;86.83;99956.89;1660927;84;21028;-84
2021/12/14 09:45:11;;;;;;;16.55;6.40;;;;;;;3.31;86.20;99955.64;1664626;83;21003;-83
2021/12/14 09:47:41;;;;;;;15.88;6.50;;;;;;;3.46;87.12;99952.48;1671471;85;21104;-84
2021/12/14 09:50:28;;;;;;;18.98;8.88;;;;;;;3.53;86.92;99949.59;1656844;84;21051;-81
2021/12/14 09:52:58;;;;;;;26.70;6.97;;;;;;;3.55;86.82;99955.20;1671892;84;21011;-84
2021/12/14 09:55:29;;;;;;;18.80;8.35;;;;;;;3.57;86.33;99947.52;1656140;83;21023;-85
2021/12/14 09:58:01;;;;;;;32.85;11.05;;;;;;;3.55;86.05;99947.91;1669742;84;21059;-84
2021/12/14 10:00:45;;;;;;;15.50;7.70;;;;;;;3.57;85.79;99952.66;1681915;80;21132;-89
2021/12/14 10:03:14;;;;;;;18.30;7.75;;;;;;;3.58;85.44;99951.41;1664592;83;21009;-81
2021/12/14 10:05:51;;;;;;;20.90;7.35;;;;;;;3.56;85.73;99942.80;1685755;83;21044;-82
2021/12/14 10:08:25;;;;;;;16.45;7.30;;;;;;;3.52;85.38;99943.98;1698020;83;21044;-81
2021/12/14 10:11:04;;;;;;;20.72;7.78;;;;;;;3.48;85.33;99943.48;1694941;83;21031;-80
2021/12/14 10:13:29;;;;;;;20.80;8.88;;;;;;;3.47;85.66;99941.78;1701562;81;21097;-83
2021/12/14 10:15:59;;;;;;;23.60;8.80;;;;;;;3.52;85.68;99941.42;1698537;83;21001;-83
2021/12/14 10:18:34;;;;;;;22.30;7.78;;;;;;;3.55;85.84;99942.77;1699532;83;20936;-83
2021/12/14 10:21:28;;;;;;;19.17;6.28;;;;;;;3.56;85.51;99937.66;1704654;83;21068;-82
2021/12/14 10:23:57;;;;;;;16.60;6.30;;;;;;;3.58;85.58;99933.80;1671683;84;21002;-80
2021/12/14 10:26:28;;;;;;;15.50;6.12;;;;;;;3.58;85.34;99937.27;1673797;85;21073;-82
2021/12/14 10:28:58;;;;;;;16.55;7.17;;;;;;;3.58;85.52;99930.83;1680429;84;21008;-82
2021/12/14 10:31:31;;;;;;;22.20;7.35;;;;;;;3.64;85.15;99936.50;1682802;83;21076;-83
2021/12/14 10:34:02;;;;;;;13.78;6.28;;;;;;;3.64;85.47;99931.36;1693638;83;21043;-83
2021/12/14 10:36:36;;;;;;;14.55;6.75;;;;;;;3.65;85.12;99924.08;1694984;80;21032;-88
2021/12/14 10:39:35;;;;;;;23.12;6.90;;;;;;;3.71;85.56;99922.02;1711408;83;21059;-82
2021/12/14 10:44:25;;;;;;;13.90;6.95;;;;;;;3.80;84.59;99913.18;1719071;83;21040;-84
2021/12/14 10:46:54;;;;;;;17.75;7.47;;;;;;;3.89;85.25;99917.59;1730941;81;20964;-83
2021/12/14 10:49:26;;;;;;;14.10;7.10;;;;;;;3.87;85.20;99911.55;1729351;83;21081;-83
2021/12/14 10:51:58;;;;;;;18.25;6.83;;;;;;;3.84;84.64;99916.64;1705150;83;21045;-82
2021/12/14 10:54:28;;;;;;;19.32;7.42;;;;;;;3.87;84.68;99914.98;1713355;81;21143;-91
2021/12/14 10:57:05;;;;;;;15.95;7.90;;;;;;;3.86;84.60;99908.13;1762894;79;21179;-91
2021/12/14 10:59:41;;;;;;;16.05;6.42;;;;;;;3.91;84.74;99910.76;1809755;79;20995;-84
2021/12/14 11:02:09;;;;;;;22.70;6.50;;;;;;;3.89;84.41;99915.88;1796019;77;21008;-84
2021/12/14 11:04:52;;;;;;;14.93;6.85;;;;;;;3.89;84.33;99916.30;1777922;79;21051;-84
2021/12/14 11:07:18;;;;;;;15.58;6.05;;;;;;;3.85;83.92;99919.67;1804396;77;21013;-81
2021/12/14 11:09:49;;;;;;;10.50;5.70;;;;;;;3.77;83.18;99913.12;1807061;79;20940;-85
2021/12/14 11:12:28;;;;;;;33.98;9.48;;;;;;;3.71;83.33;99916.45;1782474;79;21000;-84
2021/12/14 11:15:18;;;;;;;18.00;7.10;;;;;;;3.71;83.96;99910.45;1809938;78;21000;-82
2021/12/14 11:20:41;;;;;;;14.30;5.92;;;;;;;3.75;83.96;99895.08;1823293;77;21138;-83
2021/12/14 11:23:31;;;;;;;16.10;7.25;;;;;;;3.86;84.39;99892.69;1793973;79;20982;-82
2021/12/14 11:26:08;;;;;;;26.65;8.73;;;;;;;3.83;83.61;99889.20;1784289;79;21010;-83
2021/12/14 11:28:40;;;;;;;18.80;7.67;;;;;;;3.78;83.60;99891.72;1799572;79;20969;-83
2021/12/14 11:31:22;;;;;;;19.37;7.20;;;;;;;3.80;83.98;99878.45;1799854;78;20954;-84
2021/12/14 11:33:59;;;;;;;14.90;7.45;;;;;;;3.82;83.35;99875.88;1801522;77;21002;-83
2021/12/14 11:36:45;;;;;;;12.63;6.22;;;;;;;3.88;83.32;99875.97;1813313;77;20979;-83
2021/12/14 11:39:28;;;;;;;13.50;6.92;;;;;;;3.94;83.63;99878.66;1805648;78;21068;-84
2021/12/14 11:42:06;;;;;;;12.93;6.40;;;;;;;3.96;83.37;99867.97;1797535;78;20980;-85
2021/12/14 11:44:47;;;;;;;11.73;6.40;;;;;;;3.95;83.39;99868.36;1777581;77;20971;-85
2021/12/14 11:50:35;;;;;;;10.93;5.42;;;;;;;3.88;83.06;99866.56;1810961;77;20983;-82
2021/12/14 11:53:11;;;;;;;13.03;5.10;;;;;;;3.90;83.20;99868.73;1812946;77;21040;-82
2021/12/14 11:55:55;;;;;;;16.05;5.75;;;;;;;3.90;83.19;99850.73;1806911;78;21059;-82
2021/12/14 11:58:43;;;;;;;18.62;5.75;;;;;;;3.93;83.52;99852.47;1815782;77;20983;-83
2021/12/14 12:01:34;;;;;;;20.75;6.20;;;;;;;4.02;83.52;99854.30;1823661;78;21059;-86
2021/12/14 12:04:12;;;;;;;10.98;6.08;;;;;;;4.12;83.54;99857.46;1638591;86;21126;-89
2021/12/14 12:09:45;;;;;;;14.75;6.10;;;;;;;4.15;82.47;99847.19;1683737;84;21024;-82
2021/12/14 12:12:32;;;;;;;16.17;6.45;;;;;;;4.11;82.35;99846.70;1668820;84;21306;-84
2021/12/14 12:15:18;;;;;;;16.37;7.03;;;;;;;4.09;82.53;99848.40;1664916;85;21076;-85
2021/12/14 12:17:53;;;;;;;18.85;6.55;;;;;;;4.14;82.76;99855.34;1666626;85;21009;-83
2021/12/14 12:20:30;;;;;;;13.13;6.15;;;;;;;4.13;81.92;99860.03;1662767;85;21080;-82
2021/12/14 12:23:13;;;;;;;13.83;6.25;;;;;;;4.13;81.78;99860.03;1665398;85;21057;-82
2021/12/14 12:25:45;;;;;;;13.22;5.92;;;;;;;4.16;82.29;99867.80;1667263;82;21478;-82
2021/12/14 12:28:28;;;;;;;19.82;6.65;;;;;;;4.11;81.69;99857.86;1659775;85;21031;-83
2021/12/14 12:31:11;;;;;;;16.42;5.65;;;;;;;4.06;81.80;99858.23;1660972;82;20988;-85
2021/12/14 12:33:46;;;;;;;22.30;7.80;;;;;;;4.00;81.46;99860.73;1665870;85;21317;-83
2021/12/14 12:36:21;;;;;;;20.15;6.50;;;;;;;4.03;82.30;99860.75;1669837;85;21034;-82
2021/12/14 12:38:56;;;;;;;15.98;6.97;;;;;;;4.08;82.13;99865.95;1664340;84;20992;-84
2021/12/14 12:41:48;;;;;;;11.60;5.33;;;;;;;4.07;81.79;99854.80;1661720;83;21028;-86
2021/12/14 12:44:24;;;;;;;21.52;8.48;;;;;;;4.05;81.76;99854.35;1731111;80;21391;-89
2021/12/14 12:47:17;;;;;;;17.00;6.75;;;;;;;4.08;82.23;99862.98;1759702;78;21101;-91
2021/12/14 12:49:50;;;;;;;11.05;4.70;;;;;;;4.10;82.30;99866.84;1778813;78;21170;-86